Terminal Aerodrome Forecast
Issued by NWS Portland, ME

Home | Current Version | Previous Version | Text Only | Print | Product List | Glossary On
Versions: 1 2 3 4 5 6 7 8 9 10 11 12 13 14 15 16 17 18 19 20 21 22 23
000
FTUS41 KGYX 262140 AAB
TAFCON
TAF AMD
KCON 262140Z 2622/2718 36013G25KT 1 1/2SM +RA VCTS FEW035 BKN050CB
      TEMPO 2622/2624 1 1/2SM TSRA BKN035CB OVC050
     FM270000 03003KT 4SM -SHRA BR SCT020 BKN060 OVC080
     FM270200 02002KT 5SM BR BKN015 OVC060
     FM270600 05005KT P6SM OVC012=

USA.gov is the U.S. government's official web portal to all federal, state and local government web resources and services.